This is the latest recevied weather packets stored in our database for station/object OK1PHM-12. If no packets are shown the sender has not sent any weather packets the latest 10 day(s).
| Time | Temp. | Humidity | Pressure | Rain* | Wind** | Luminosity | Snow |
|---|---|---|---|---|---|---|---|
| 1777697529 | 13.89° C | 58% | 1026.9 hPa | - | - | - | - |
| 1777696628 | 13.33° C | 61% | 1026.9 hPa | - | - | - | - |
| 1777695727 | 11.67° C | 64% | 1026.9 hPa | - | - | - | - |
| 1777694826 | 8.33° C | 77% | 1026.9 hPa | - | - | - | - |
| 1777693925 | 6.67° C | 81% | 1026.8 hPa | - | - | - | - |
| 1777693024 | 6.11° C | 82% | 1026.8 hPa | - | - | - | - |
| 1777692124 | 6.11° C | 82% | 1026.9 hPa | - | - | - | - |
| 1777691223 | 6.67° C | 81% | 1026.9 hPa | - | - | - | - |
| 1777690322 | 6.67° C | 82% | 1027 hPa | - | - | - | - |
| 1777689421 | 6.67° C | 81% | 1027 hPa | - | - | - | - |
| 1777688520 | 6.67° C | 82% | 1027 hPa | - | - | - | - |
| 1777687620 | 6.67° C | 79% | 1027 hPa | - | - | - | - |
| 1777686719 | 7.22° C | 78% | 1026.9 hPa | - | - | - | - |
| 1777685818 | 7.78° C | 76% | 1026.9 hPa | - | - | - | - |
| 1777684917 | 7.78° C | 76% | 1026.9 hPa | - | - | - | - |
| 1777684016 | 8.33° C | 75% | 1026.9 hPa | - | - | - | - |
| 1777683116 | 8.33° C | 74% | 1027 hPa | - | - | - | - |
| 1777682215 | 8.33° C | 74% | 1027.1 hPa | - | - | - | - |
| 1777681314 | 8.89° C | 73% | 1027.1 hPa | - | - | - | - |
| 1777680413 | 8.89° C | 72% | 1027.2 hPa | - | - | - | - |
| 1777679512 | 8.89° C | 72% | 1027.2 hPa | - | - | - | - |
| 1777678611 | 9.44° C | 72% | 1027.2 hPa | - | - | - | - |
| 1777677710 | 9.44° C | 71% | 1027.2 hPa | - | - | - | - |
| 1777676809 | 9.44° C | 71% | 1027.4 hPa | - | - | - | - |
| 1777675909 | 9.44° C | 70% | 1027.4 hPa | - | - | - | - |
* Rain since midnight (hover to see other rain measurements)
** Current wind speed in m/s (hover to see current wind gust speed)